Time;durP1;ratioP1;P1;durP2;ratioP2;P2;SDS_P1;SDS_P2;PMS_P1;PMS_P2;Temp;Humidity;BMP_temperature;BMP_pressure;BME280_temperature;BME280_humidity;BME280_pressure;Samples;Min_cycle;Max_cycle;Signal;HPM_P1;HPM_P2
2022/11/29 00:01:27;;;;;;;;;41.00;34.25;;;;;9.63;65.36;100928.06;6340391;22;45262;-48
2022/11/29 00:03:53;;;;;;;;;38.00;28.75;;;;;9.57;65.40;100924.59;6340806;22;45154;-49
2022/11/29 00:06:26;;;;;;;;;34.75;32.50;;;;;9.60;65.38;100928.94;6340502;22;45329;-48
2022/11/29 00:08:52;;;;;;;;;37.25;35.25;;;;;9.57;65.31;100929.84;6340595;22;45185;-50
2022/11/29 00:14:08;;;;;;;;;36.00;33.00;;;;;9.55;65.35;100931.59;6340372;22;45313;-52
2022/11/29 00:16:33;;;;;;;;;37.75;34.00;;;;;9.56;65.64;100930.72;6340402;22;45220;-51
2022/11/29 00:18:59;;;;;;;;;43.00;35.50;;;;;9.57;65.23;100921.97;6340326;22;45644;-49
2022/11/29 00:21:25;;;;;;;;;38.25;33.00;;;;;9.57;65.55;100923.72;6340417;22;46007;-48
2022/11/29 00:23:50;;;;;;;;;35.00;31.75;;;;;9.57;65.30;100921.97;6340244;22;45249;-53
2022/11/29 00:26:15;;;;;;;;;40.00;32.75;;;;;9.56;65.43;100922.00;6339912;22;45163;-51
2022/11/29 00:28:41;;;;;;;;;35.00;31.25;;;;;9.56;65.38;100929.88;6340049;22;45427;-51
2022/11/29 00:31:22;;;;;;;;;44.25;34.50;;;;;9.57;65.64;100928.97;6340437;22;45177;-51
2022/11/29 00:33:48;;;;;;;;;32.75;28.50;;;;;9.57;65.74;100934.19;6339645;22;45325;-52
2022/11/29 00:36:14;;;;;;;;;45.25;36.50;;;;;9.56;65.46;100930.72;6339981;22;45349;-52
2022/11/29 00:38:39;;;;;;;;;37.75;35.50;;;;;9.55;65.44;100931.59;6340019;22;45192;-49
2022/11/29 00:41:05;;;;;;;;;30.25;28.50;;;;;9.55;65.43;100933.38;6339458;22;45220;-51
2022/11/29 00:43:31;;;;;;;;;33.00;32.50;;;;;9.57;65.74;100934.19;6339843;22;45283;-49
2022/11/29 00:45:56;;;;;;;;;35.50;27.50;;;;;9.56;65.45;100941.22;6340585;22;45146;-49
2022/11/29 00:48:22;;;;;;;;;42.50;36.00;;;;;9.56;65.66;100930.72;6340184;22;45161;-51
2022/11/29 00:50:47;;;;;;;;;41.00;35.25;;;;;9.57;65.75;100929.84;6339437;22;46100;-52
2022/11/29 00:53:12;;;;;;;;;34.50;30.25;;;;;9.55;65.31;100941.22;6341669;22;45088;-49
2022/11/29 00:55:38;;;;;;;;;34.50;32.50;;;;;9.54;65.56;100936.88;6341649;22;45432;-50
2022/11/29 00:58:03;;;;;;;;;40.00;30.50;;;;;9.54;65.38;100934.25;6341517;22;45387;-52
2022/11/29 01:00:28;;;;;;;;;36.25;34.50;;;;;9.52;65.48;100933.38;6341281;22;46126;-52
2022/11/29 01:02:54;;;;;;;;;35.50;32.50;;;;;9.52;65.51;100936.00;6341589;22;45188;-49
2022/11/29 01:05:19;;;;;;;;;28.25;26.75;;;;;9.51;65.71;100943.00;6341678;22;45309;-51
2022/11/29 01:07:45;;;;;;;;;29.25;28.50;;;;;9.50;65.66;100936.00;6341553;22;45258;-53
2022/11/29 01:10:10;;;;;;;;;27.25;26.50;;;;;9.51;65.74;100942.13;6341193;22;45290;-50
2022/11/29 01:12:36;;;;;;;;;24.00;20.75;;;;;9.49;65.68;100936.88;6341360;22;45246;-53
2022/11/29 01:15:06;;;;;;;;;36.00;32.25;;;;;9.48;65.43;100936.91;6341693;22;45427;-49
2022/11/29 01:17:34;;;;;;;;;33.75;29.50;;;;;9.46;65.67;100931.66;6340831;22;45175;-53
2022/11/29 01:19:59;;;;;;;;;37.75;32.75;;;;;9.44;65.67;100936.91;6339871;22;46180;-54
2022/11/29 01:22:24;;;;;;;;;34.00;31.00;;;;;9.40;65.39;100935.19;6339710;22;45237;-52
2022/11/29 01:24:50;;;;;;;;;29.75;26.25;;;;;9.40;65.52;100936.97;6340289;22;45274;-52
2022/11/29 01:27:15;;;;;;;;;32.75;30.00;;;;;9.41;65.53;100947.44;6341016;22;45186;-50
2022/11/29 01:29:40;;;;;;;;;26.25;24.75;;;;;9.40;65.50;100944.81;6338089;22;46318;-53
2022/11/29 01:32:06;;;;;;;;;32.25;27.00;;;;;9.39;65.74;100949.19;6340355;22;45230;-51
2022/11/29 01:34:31;;;;;;;;;39.50;30.00;;;;;9.38;65.93;100950.09;6341276;22;46770;-49
2022/11/29 01:36:56;;;;;;;;;32.75;26.00;;;;;9.39;65.85;100950.94;6341301;22;45277;-48
2022/11/29 01:39:22;;;;;;;;;25.75;23.25;;;;;9.39;65.87;100950.94;6340844;22;46263;-50
2022/11/29 01:41:47;;;;;;;;;32.50;29.50;;;;;9.39;65.85;100962.28;6341123;22;45222;-52
2022/11/29 01:44:12;;;;;;;;;28.00;26.50;;;;;9.40;65.79;100960.56;6341651;22;45408;-53
2022/11/29 01:46:40;;;;;;;;;29.50;26.00;;;;;9.40;66.01;100956.19;6340659;22;45358;-49
2022/11/29 01:49:14;;;;;;;;;32.75;26.75;;;;;9.42;65.93;100964.91;6340009;22;46197;-50
2022/11/29 01:51:46;;;;;;;;;29.50;25.00;;;;;9.44;65.84;100967.53;6338959;22;45179;-53
2022/11/29 01:54:12;;;;;;;;;31.50;27.50;;;;;9.43;65.95;100969.28;6341095;22;45396;-50
2022/11/29 01:56:38;;;;;;;;;24.75;22.25;;;;;9.45;66.19;100969.28;6341021;22;45329;-51
2022/11/29 01:59:13;;;;;;;;;26.50;26.50;;;;;9.47;65.91;100970.16;6339085;22;46183;-49
2022/11/29 02:01:39;;;;;;;;;24.00;20.00;;;;;9.53;65.98;100977.09;6340598;22;45219;-58
2022/11/29 02:04:05;;;;;;;;;27.25;24.75;;;;;9.54;66.25;100986.72;6340609;22;45210;-52
2022/11/29 02:06:31;;;;;;;;;28.00;24.75;;;;;9.57;66.21;100990.19;6341404;22;45419;-50
2022/11/29 02:08:56;;;;;;;;;27.75;24.75;;;;;9.59;66.11;100988.41;6340733;22;46026;-50
2022/11/29 02:11:34;;;;;;;;;26.25;22.75;;;;;9.62;66.04;100987.53;6341234;22;45105;-52
2022/11/29 02:14:32;;;;;;;;;28.50;19.75;;;;;9.64;66.07;100987.53;6341613;22;45270;-48
2022/11/29 02:17:41;;;;;;;;;27.75;26.50;;;;;9.67;66.23;100993.63;6341219;22;45240;-52
2022/11/29 02:20:28;;;;;;;;;38.50;33.25;;;;;9.69;66.13;100997.09;6289316;22;45342;-52
2022/11/29 02:23:12;;;;;;;;;37.75;32.75;;;;;9.71;66.30;100992.72;6339003;22;46015;-51
2022/11/29 02:25:59;;;;;;;;;36.25;30.50;;;;;9.74;66.36;100995.31;6338934;22;45385;-52
2022/11/29 02:28:42;;;;;;;;;30.50;25.25;;;;;9.77;66.22;100991.78;6341210;22;45300;-51
2022/11/29 02:31:10;;;;;;;;;26.25;24.00;;;;;9.80;66.20;100988.28;6341252;22;45396;-52
2022/11/29 02:34:21;;;;;;;;;28.75;27.25;;;;;9.82;66.17;100989.16;6341168;22;45643;-51
2022/11/29 02:37:16;;;;;;;;;30.25;26.75;;;;;9.83;66.19;100983.88;6314936;22;45116;-50
2022/11/29 02:40:04;;;;;;;;;31.75;26.75;;;;;9.86;66.20;100988.25;6340334;22;45184;-51
2022/11/29 02:42:54;;;;;;;;;33.25;27.25;;;;;9.88;66.22;100994.38;6341092;22;46563;-53
2022/11/29 02:45:38;;;;;;;;;31.00;29.25;;;;;9.88;66.31;100987.34;6340490;22;45288;-50
2022/11/29 02:48:15;;;;;;;;;35.50;30.00;;;;;9.90;66.21;100995.22;6341107;22;45379;-51
2022/11/29 02:51:00;;;;;;;;;32.25;30.25;;;;;9.91;66.35;100994.31;6340262;22;45428;-51
2022/11/29 02:53:35;;;;;;;;;34.00;27.75;;;;;9.93;66.23;100993.44;6340753;22;45136;-50
2022/11/29 02:56:15;;;;;;;;;35.25;33.25;;;;;9.95;66.15;100996.06;6340444;22;45301;-52
2022/11/29 02:59:00;;;;;;;;;36.00;31.75;;;;;9.97;66.28;100996.03;6341242;22;45188;-52
2022/11/29 03:01:36;;;;;;;;;37.50;35.00;;;;;9.99;66.36;101002.16;6340868;22;45313;-52
2022/11/29 03:04:07;;;;;;;;;34.25;31.50;;;;;10.00;66.43;101007.41;6340982;22;45224;-49
2022/11/29 03:06:47;;;;;;;;;35.25;31.25;;;;;9.99;66.68;101000.41;6340824;22;45257;-51
2022/11/29 03:09:25;;;;;;;;;33.75;30.75;;;;;10.01;66.34;101006.53;6338111;22;45261;-51
2022/11/29 03:12:09;;;;;;;;;40.00;32.25;;;;;10.04;66.17;100998.59;6339514;22;45214;-51
2022/11/29 03:14:53;;;;;;;;;39.75;34.75;;;;;10.04;66.30;101003.84;6339795;22;45158;-53
2022/11/29 03:17:47;;;;;;;;;35.75;30.50;;;;;10.02;66.24;101003.00;6338172;22;45196;-52
2022/11/29 03:20:20;;;;;;;;;38.00;32.50;;;;;10.05;66.43;101002.97;6338721;22;45354;-54
2022/11/29 03:23:12;;;;;;;;;34.75;30.50;;;;;10.06;66.13;101003.84;6341040;22;45254;-51
2022/11/29 03:26:05;;;;;;;;;38.00;32.00;;;;;10.07;66.32;101006.47;6339468;22;45241;-49
2022/11/29 03:28:55;;;;;;;;;35.50;32.00;;;;;10.09;66.29;101011.72;6340763;22;45220;-51
2022/11/29 03:31:34;;;;;;;;;36.50;32.00;;;;;10.09;66.39;101017.81;6341036;22;45263;-53
2022/11/29 03:34:14;;;;;;;;;31.00;29.00;;;;;10.11;66.34;101012.56;6341015;22;45400;-50
2022/11/29 03:37:05;;;;;;;;;25.25;23.00;;;;;10.12;66.31;101011.66;6340680;22;45313;-49
2022/11/29 03:40:05;;;;;;;;;38.00;32.75;;;;;10.13;66.23;101023.94;6310282;22;45236;-50
2022/11/29 03:42:55;;;;;;;;;37.50;33.25;;;;;10.14;66.18;101024.78;6284326;22;45304;-52
2022/11/29 03:45:31;;;;;;;;;36.50;32.75;;;;;10.13;66.32;101020.44;6340575;22;45143;-49
2022/11/29 03:48:06;;;;;;;;;38.75;33.25;;;;;10.03;66.27;101006.50;6340142;22;45340;-49
2022/11/29 03:50:37;;;;;;;;;37.00;33.50;;;;;10.13;66.38;101033.56;6339600;22;45282;-49
2022/11/29 03:53:15;;;;;;;;;35.50;31.00;;;;;10.12;66.38;101037.94;6340889;22;45261;-53
2022/11/29 03:55:59;;;;;;;;;37.75;32.50;;;;;10.12;66.31;101029.19;6340367;22;45271;-51
2022/11/29 03:58:42;;;;;;;;;34.25;30.00;;;;;10.11;66.19;101033.56;6340715;22;46254;-52
2022/11/29 04:01:20;;;;;;;;;37.50;32.00;;;;;10.10;66.20;101037.09;6340531;22;45247;-51
2022/11/29 04:04:22;;;;;;;;;28.75;27.50;;;;;10.08;66.28;101041.47;6340750;22;45417;-49
2022/11/29 04:07:17;;;;;;;;;33.25;27.75;;;;;10.06;66.34;101046.75;6340484;22;45383;-50
2022/11/29 04:10:01;;;;;;;;;37.50;31.75;;;;;10.02;66.31;101038.88;6339693;22;46098;-53
2022/11/29 04:12:43;;;;;;;;;34.00;31.50;;;;;10.01;66.34;101048.53;6340327;22;45261;-50
2022/11/29 04:15:30;;;;;;;;;32.50;27.00;;;;;10.05;66.16;101058.13;6340865;22;45287;-52
2022/11/29 04:18:22;;;;;;;;;32.75;30.25;;;;;10.03;66.31;101056.41;6340072;22;45418;-51
2022/11/29 04:21:08;;;;;;;;;33.50;30.00;;;;;10.02;66.25;101065.16;6337963;22;47390;-50
2022/11/29 04:23:52;;;;;;;;;28.75;26.75;;;;;10.02;66.39;101068.63;6340542;22;45298;-51
2022/11/29 04:26:52;;;;;;;;;37.25;33.00;;;;;10.01;66.15;101066.91;6340848;22;45152;-52
2022/11/29 04:29:35;;;;;;;;;38.25;31.00;;;;;9.99;66.17;101073.91;6341179;22;45242;-51
2022/11/29 04:32:23;;;;;;;;;27.00;27.00;;;;;9.99;66.37;101076.53;6341629;22;45825;-48
2022/11/29 04:35:17;;;;;;;;;33.75;30.75;;;;;10.00;66.36;101080.91;6339667;22;45243;-50
2022/11/29 04:38:08;;;;;;;;;32.00;27.25;;;;;10.01;66.33;101079.16;6341991;22;45317;-52
2022/11/29 04:41:11;;;;;;;;;28.75;28.75;;;;;10.01;66.25;101082.66;6341296;22;45183;-51
2022/11/29 04:43:39;;;;;;;;;25.50;25.50;;;;;10.02;66.30;101086.16;6275540;22;47058;-52
2022/11/29 04:46:29;;;;;;;;;31.00;28.25;;;;;10.02;66.38;101078.28;6329398;22;45399;-50
2022/11/29 04:49:10;;;;;;;;;33.25;29.00;;;;;10.02;66.21;101094.03;6341257;22;45150;-50
2022/11/29 04:51:56;;;;;;;;;36.00;31.25;;;;;10.02;66.30;101089.63;6341588;22;45358;-48
2022/11/29 04:54:21;;;;;;;;;29.50;28.00;;;;;10.01;66.51;101087.91;6341101;22;45220;-49
2022/11/29 04:56:56;;;;;;;;;34.25;29.50;;;;;10.01;66.29;101087.91;6341437;22;45253;-52
2022/11/29 04:59:37;;;;;;;;;30.00;29.25;;;;;10.02;66.30;101092.25;6341489;22;45266;-51
2022/11/29 05:02:45;;;;;;;;;34.75;32.00;;;;;10.00;66.38;101093.16;6341573;22;45175;-52
2022/11/29 05:05:29;;;;;;;;;33.00;31.00;;;;;9.99;66.16;101102.78;6340289;22;46216;-50
2022/11/29 05:08:13;;;;;;;;;31.25;28.75;;;;;9.98;66.13;101103.69;6339115;22;45249;-52
2022/11/29 05:11:00;;;;;;;;;34.00;31.25;;;;;9.96;66.29;101104.56;6341482;22;45429;-49
2022/11/29 05:13:37;;;;;;;;;30.00;26.75;;;;;9.94;66.25;101112.47;6341660;22;45255;-53
2022/11/29 05:16:32;;;;;;;;;30.50;26.25;;;;;9.93;66.29;101114.19;6341337;22;45270;-52
2022/11/29 05:19:15;;;;;;;;;27.75;24.00;;;;;9.92;66.06;101117.72;6309700;22;45247;-53
2022/11/29 05:21:52;;;;;;;;;31.50;30.50;;;;;9.91;66.21;101125.59;6341528;22;45248;-52
2022/11/29 05:24:34;;;;;;;;;29.50;27.25;;;;;9.90;66.29;101129.13;6340845;22;45402;-49
2022/11/29 05:27:27;;;;;;;;;29.00;29.00;;;;;9.88;66.28;101126.47;6341292;22;45424;-51
2022/11/29 05:29:55;;;;;;;;;33.50;31.50;;;;;9.87;66.35;101124.75;6341048;22;45176;-48
2022/11/29 05:32:29;;;;;;;;;31.50;28.00;;;;;9.86;66.24;101135.25;6340959;22;45301;-51
2022/11/29 05:35:16;;;;;;;;;33.25;30.25;;;;;9.84;66.28;101137.88;6340678;22;45397;-48
2022/11/29 05:37:53;;;;;;;;;30.50;27.75;;;;;9.82;66.35;101136.13;6341083;22;45298;-52
2022/11/29 05:40:47;;;;;;;;;33.50;30.75;;;;;9.80;66.06;101146.66;6341017;22;45527;-50
2022/11/29 05:43:44;;;;;;;;;31.75;29.50;;;;;9.75;66.05;101141.41;6339339;22;45263;-49
2022/11/29 05:46:25;;;;;;;;;31.50;24.75;;;;;9.73;66.18;101143.16;6340337;22;45270;-52
2022/11/29 05:48:53;;;;;;;;;41.50;33.00;;;;;9.69;66.24;101144.06;6340892;22;45203;-49
2022/11/29 05:51:26;;;;;;;;;33.00;24.75;;;;;9.67;66.62;101150.19;6341212;22;45333;-48
2022/11/29 05:54:22;;;;;;;;;31.00;26.25;;;;;9.64;66.17;101153.72;6339004;22;45280;-48
2022/11/29 05:57:13;;;;;;;;;42.00;35.00;;;;;9.61;66.00;101164.22;6341482;22;45253;-50
2022/11/29 05:59:40;;;;;;;;;36.50;32.75;;;;;9.58;66.02;101162.50;6339401;22;46383;-52
2022/11/29 06:02:22;;;;;;;;;37.00;30.50;;;;;9.54;66.16;101157.25;6341330;22;45356;-49
2022/11/29 06:04:47;;;;;;;;;33.00;31.50;;;;;9.53;66.08;101160.75;6341505;22;45169;-48
2022/11/29 06:07:23;;;;;;;;;30.75;27.75;;;;;9.51;66.24;101168.63;6341020;22;45167;-53
2022/11/29 06:09:59;;;;;;;;;36.25;32.75;;;;;9.50;66.08;101168.66;6338496;22;46714;-54
2022/11/29 06:12:25;;;;;;;;;42.00;33.00;;;;;9.48;65.98;101170.38;6340793;22;45213;-55
2022/11/29 06:15:12;;;;;;;;;41.25;33.75;;;;;9.44;66.21;101170.38;6340923;22;45394;-53
2022/11/29 06:18:01;;;;;;;;;32.50;29.75;;;;;9.42;66.11;101187.88;6340587;22;45196;-53
2022/11/29 06:20:58;;;;;;;;;32.00;31.25;;;;;9.38;66.15;101183.53;6340733;22;45876;-51
2022/11/29 06:23:52;;;;;;;;;34.50;32.00;;;;;9.34;66.10;101184.41;6341038;22;45287;-52
2022/11/29 06:26:28;;;;;;;;;31.75;30.00;;;;;9.31;65.87;101187.03;6340845;22;45159;-49
2022/11/29 06:28:56;;;;;;;;;30.50;29.50;;;;;9.31;66.27;101192.28;6340833;22;45165;-51
2022/11/29 06:31:41;;;;;;;;;37.25;31.50;;;;;9.27;65.91;101190.56;6340712;22;47249;-55
2022/11/29 06:34:19;;;;;;;;;39.75;33.00;;;;;9.26;65.85;101196.66;6339131;22;45488;-52
2022/11/29 06:36:53;;;;;;;;;39.00;33.00;;;;;9.20;65.72;101194.06;6339029;22;45132;-48
2022/11/29 06:39:18;;;;;;;;;41.25;34.00;;;;;9.20;66.15;101204.53;6340395;22;45308;-50
2022/11/29 06:41:45;;;;;;;;;33.75;29.25;;;;;9.18;65.94;101204.56;6338357;22;46937;-51
2022/11/29 06:44:11;;;;;;;;;40.25;35.00;;;;;9.13;66.12;101192.31;6340700;22;45284;-53
2022/11/29 06:46:47;;;;;;;;;43.75;36.00;;;;;9.11;66.12;101198.41;6341294;22;45085;-49
2022/11/29 06:50:00;;;;;;;;;45.00;36.75;;;;;9.10;65.90;101208.91;6340093;22;45339;-53
2022/11/29 06:52:43;;;;;;;;;41.25;36.00;;;;;9.04;66.18;101209.81;6340466;22;45300;-51
2022/11/29 06:55:12;;;;;;;;;46.50;36.75;;;;;9.02;65.96;101218.50;6339999;22;45377;-51
2022/11/29 06:57:57;;;;;;;;;46.25;35.75;;;;;8.98;66.18;101222.03;6338804;22;45429;-51
2022/11/29 07:00:25;;;;;;;;;43.75;37.00;;;;;8.98;65.92;101225.53;6340731;22;45241;-51
2022/11/29 07:03:46;;;;;;;;;43.50;36.00;;;;;8.97;65.80;101231.66;6338895;22;46259;-52
2022/11/29 07:06:19;;;;;;;;;41.50;33.75;;;;;8.96;66.14;101229.88;6324096;22;45249;-52
2022/11/29 07:08:47;;;;;;;;;46.00;37.75;;;;;8.92;65.79;101228.16;6341056;22;45165;-52
2022/11/29 07:11:14;;;;;;;;;47.50;38.50;;;;;8.89;65.99;101226.41;6340630;22;45546;-49
2022/11/29 07:13:39;;;;;;;;;41.00;33.00;;;;;8.89;66.09;101233.38;6341006;22;46020;-52
2022/11/29 07:16:21;;;;;;;;;46.50;36.25;;;;;8.88;66.21;101234.25;6338897;22;45216;-50
2022/11/29 07:18:53;;;;;;;;;50.25;38.50;;;;;8.84;66.07;101238.63;6340328;22;45181;-51
2022/11/29 07:21:38;;;;;;;;;42.75;36.00;;;;;8.85;66.18;101242.97;6341247;22;45257;-50
2022/11/29 07:24:06;;;;;;;;;40.75;36.75;;;;;8.84;66.15;101240.38;6338438;22;48187;-48
2022/11/29 07:26:45;;;;;;;;;46.50;37.75;;;;;8.82;66.13;101243.00;6340962;22;45195;-51
2022/11/29 07:29:22;;;;;;;;;42.50;35.00;;;;;8.82;65.87;101252.59;6338384;22;45363;-52
2022/11/29 07:32:21;;;;;;;;;46.50;37.00;;;;;8.80;66.10;101246.47;6338744;22;45374;-52
2022/11/29 07:34:58;;;;;;;;;45.50;36.00;;;;;8.77;65.91;101245.59;6340201;22;46552;-52
2022/11/29 07:37:43;;;;;;;;;43.50;37.75;;;;;8.76;66.22;101254.31;6341303;22;45278;-51
2022/11/29 07:40:18;;;;;;;;;51.50;39.00;;;;;8.74;66.35;101256.09;6340299;22;45285;-53
2022/11/29 07:42:52;;;;;;;;;39.50;35.00;;;;;8.73;65.85;101262.19;6339379;22;45661;-53
2022/11/29 07:45:30;;;;;;;;;43.25;36.25;;;;;8.71;66.04;101257.81;6339980;22;46028;-53
2022/11/29 07:47:56;;;;;;;;;42.50;36.25;;;;;8.71;66.09;101257.81;6338873;22;45370;-53
2022/11/29 07:50:23;;;;;;;;;41.00;34.50;;;;;8.72;66.28;101262.19;6336171;22;45370;-50
2022/11/29 07:52:49;;;;;;;;;49.75;37.25;;;;;8.71;66.18;101263.94;6339848;22;45509;-51
2022/11/29 07:55:19;;;;;;;;;44.75;37.00;;;;;8.72;66.37;101270.06;6339340;22;45426;-51
2022/11/29 07:57:44;;;;;;;;;46.25;38.75;;;;;8.72;66.42;101265.69;6338155;22;45361;-54
2022/11/29 08:00:10;;;;;;;;;56.00;44.50;;;;;8.76;66.52;101275.28;6339670;22;49966;-51
2022/11/29 08:02:35;;;;;;;;;58.25;44.00;;;;;8.77;66.60;101273.56;6339658;22;45437;-53
2022/11/29 08:05:01;;;;;;;;;62.75;47.00;;;;;8.77;66.53;101276.19;6339828;22;46077;-53
2022/11/29 08:07:27;;;;;;;;;63.25;49.25;;;;;8.81;66.57;101277.06;6340653;22;45211;-52
2022/11/29 08:09:52;;;;;;;;;61.75;48.75;;;;;8.78;66.81;101272.69;6340214;22;45704;-49
2022/11/29 08:12:18;;;;;;;;;60.75;47.50;;;;;8.83;66.76;101280.53;6340503;22;45266;-52
2022/11/29 08:14:43;;;;;;;;;63.75;48.50;;;;;8.86;66.63;101291.06;6340291;22;45876;-50
2022/11/29 08:17:08;;;;;;;;;60.25;46.75;;;;;8.90;66.57;101298.03;6340371;22;45246;-51
2022/11/29 08:19:34;;;;;;;;;59.00;49.25;;;;;8.88;66.76;101295.41;6338768;22;45837;-52
2022/11/29 08:21:59;;;;;;;;;61.25;49.25;;;;;8.90;66.74;101293.66;6340520;22;46232;-49
2022/11/29 08:24:25;;;;;;;;;59.75;48.25;;;;;8.94;66.75;101302.41;6340052;22;45141;-52
2022/11/29 08:26:51;;;;;;;;;59.00;44.75;;;;;8.95;67.03;101296.28;6340082;22;45249;-51
2022/11/29 08:29:16;;;;;;;;;55.75;45.75;;;;;8.97;66.83;101294.56;6340419;22;45168;-53
2022/11/29 08:31:42;;;;;;;;;60.75;48.75;;;;;8.99;66.90;101303.28;6340563;22;45160;-49
2022/11/29 08:34:09;;;;;;;;;54.00;43.50;;;;;9.02;66.85;101311.16;6340147;22;45700;-47
2022/11/29 08:36:35;;;;;;;;;57.50;44.25;;;;;9.02;66.85;101308.53;6340146;22;45289;-52
2022/11/29 08:39:01;;;;;;;;;50.50;39.00;;;;;9.05;66.79;101320.78;6339480;22;45300;-50
2022/11/29 08:41:28;;;;;;;;;53.75;42.50;;;;;9.08;66.95;101328.63;6340113;22;45380;-52
2022/11/29 08:43:53;;;;;;;;;53.25;40.00;;;;;9.11;66.99;101328.66;6340283;22;45532;-50
2022/11/29 08:46:18;;;;;;;;;52.00;42.50;;;;;9.14;67.06;101333.03;6340116;22;45329;-53
2022/11/29 08:48:45;;;;;;;;;52.25;39.25;;;;;9.14;66.95;101328.66;6339528;22;45359;-51
2022/11/29 08:51:10;;;;;;;;;45.50;38.00;;;;;9.17;67.00;101333.03;6340149;22;45147;-53
2022/11/29 08:53:41;;;;;;;;;55.75;42.00;;;;;9.19;67.15;101333.91;6339536;22;52301;-53
2022/11/29 08:56:12;;;;;;;;;56.25;43.50;;;;;9.21;66.96;101340.91;6339364;22;45261;-53
2022/11/29 08:58:37;;;;;;;;;44.50;38.50;;;;;9.23;67.35;101344.41;6337723;22;45240;-53
2022/11/29 09:01:05;;;;;;;;;65.25;50.00;;;;;9.26;66.87;101348.78;6339946;22;45532;-51
2022/11/29 09:06:17;;;;;;;;;47.00;38.25;;;;;9.33;67.28;101349.66;6340039;22;45316;-50
2022/11/29 09:08:43;;;;;;;;;51.50;43.25;;;;;9.33;67.08;101354.91;6339408;22;45224;-50
2022/11/29 09:11:14;;;;;;;;;51.50;40.50;;;;;9.39;67.19;101360.16;6339945;22;45513;-52
2022/11/29 09:13:41;;;;;;;;;52.00;41.25;;;;;9.41;67.20;101359.28;6339359;22;47324;-48
2022/11/29 09:16:09;;;;;;;;;51.75;41.25;;;;;9.41;66.89;101361.03;6339780;22;45269;-51
2022/11/29 09:18:36;;;;;;;;;62.00;46.75;;;;;9.48;66.93;101367.16;6313556;22;45229;-52
2022/11/29 09:21:04;;;;;;;;;55.25;43.00;;;;;9.50;67.01;101357.53;6339679;22;45263;-50
2022/11/29 09:23:30;;;;;;;;;55.00;43.25;;;;;9.53;67.18;101375.91;6341258;22;45282;-50
2022/11/29 09:25:55;;;;;;;;;52.00;40.50;;;;;9.56;67.25;101368.03;6338854;22;45249;-51
2022/11/29 09:28:21;;;;;;;;;53.25;42.50;;;;;9.58;67.14;101377.66;6341441;22;45163;-53
2022/11/29 09:30:46;;;;;;;;;53.00;39.50;;;;;9.61;67.24;101384.66;6341263;22;45179;-52
2022/11/29 09:33:11;;;;;;;;;49.00;39.50;;;;;9.62;67.27;101378.50;6341383;22;45317;-50
2022/11/29 09:35:37;;;;;;;;;41.50;35.00;;;;;9.64;67.28;101389.91;6341609;22;45194;-50
2022/11/29 09:38:03;;;;;;;;;43.00;35.50;;;;;9.67;67.00;101386.41;6341732;22;45164;-49
2022/11/29 09:40:41;;;;;;;;;45.75;36.25;;;;;9.71;67.31;101396.91;6340495;22;45438;-49
2022/11/29 09:43:22;;;;;;;;;30.00;27.75;;;;;9.73;67.29;101399.50;6341380;22;45211;-53
2022/11/29 09:45:55;;;;;;;;;46.75;35.00;;;;;9.76;67.00;101403.03;6341472;22;45338;-48
2022/11/29 09:48:33;;;;;;;;;37.75;35.00;;;;;9.79;67.35;101406.53;6341713;22;45187;-47
2022/11/29 09:51:23;;;;;;;;;43.00;36.25;;;;;9.81;67.27;101403.03;6341007;22;45281;-48
2022/11/29 09:54:22;;;;;;;;;40.50;35.25;;;;;9.86;67.18;101408.25;6340382;22;45268;-49
2022/11/29 09:56:50;;;;;;;;;39.75;35.00;;;;;9.87;67.12;101412.63;6341206;22;45267;-48
2022/11/29 09:59:26;;;;;;;;;41.00;34.75;;;;;9.89;67.12;101418.78;6341445;22;45185;-51
2022/11/29 10:01:58;;;;;;;;;42.50;35.00;;;;;9.91;67.12;101415.28;6340808;22;45179;-49
2022/11/29 10:04:35;;;;;;;;;37.75;33.00;;;;;9.92;67.42;101417.03;6340896;22;46030;-49
2022/11/29 10:07:16;;;;;;;;;35.50;32.25;;;;;9.96;67.24;101425.78;6339830;22;45251;-52
2022/11/29 10:10:00;;;;;;;;;42.75;36.00;;;;;9.97;67.24;101430.13;6341106;22;45302;-51
2022/11/29 10:12:38;;;;;;;;;51.00;35.00;;;;;9.99;67.19;101428.38;6340543;22;45261;-48
2022/11/29 10:15:21;;;;;;;;;44.50;36.00;;;;;10.04;67.08;101433.66;6339123;22;48273;-52
2022/11/29 10:18:03;;;;;;;;;48.50;35.75;;;;;10.06;67.03;101445.91;6340759;22;45248;-51
2022/11/29 10:20:38;;;;;;;;;43.75;36.25;;;;;10.10;67.14;101446.78;6341271;22;45269;-52
2022/11/29 10:23:24;;;;;;;;;47.50;35.75;;;;;10.15;67.32;101441.50;6341452;22;45113;-50
2022/11/29 10:25:53;;;;;;;;;47.25;38.25;;;;;10.20;67.10;101442.34;6340942;22;46048;-49
2022/11/29 10:28:22;;;;;;;;;50.00;37.00;;;;;10.23;67.28;101442.38;6341173;22;45210;-47
2022/11/29 10:30:54;;;;;;;;;45.75;36.00;;;;;10.24;67.32;101438.88;6340792;22;45182;-49
2022/11/29 10:33:25;;;;;;;;;48.00;35.75;;;;;10.32;67.12;101444.97;6340691;22;45349;-48
2022/11/29 10:36:00;;;;;;;;;51.50;38.75;;;;;10.35;67.07;101449.34;6340764;22;45468;-48
2022/11/29 10:38:26;;;;;;;;;44.00;37.25;;;;;10.37;67.11;101448.50;6338727;22;45700;-52
2022/11/29 10:40:58;;;;;;;;;57.50;44.00;;;;;10.40;67.08;101443.25;6340639;22;45195;-52
2022/11/29 10:43:25;;;;;;;;;54.50;41.75;;;;;10.46;67.04;101454.63;6339232;22;45186;-49
2022/11/29 10:45:54;;;;;;;;;56.75;42.00;;;;;10.48;67.15;101456.38;6341064;22;45308;-49
2022/11/29 10:48:23;;;;;;;;;49.75;41.00;;;;;10.50;67.04;101452.00;6341071;22;45167;-48
2022/11/29 10:50:50;;;;;;;;;53.75;41.50;;;;;10.55;67.01;101452.84;6340335;22;45241;-50
2022/11/29 10:53:23;;;;;;;;;53.75;41.00;;;;;10.60;67.19;101454.56;6340786;22;45204;-50
2022/11/29 10:56:00;;;;;;;;;51.50;39.00;;;;;10.63;67.00;101442.31;6340838;22;45235;-51
2022/11/29 10:58:28;;;;;;;;;51.50;39.50;;;;;10.67;67.14;101449.28;6340700;22;45395;-53
2022/11/29 11:00:55;;;;;;;;;54.25;41.00;;;;;10.69;67.15;101450.19;6340886;22;45321;-53
2022/11/29 11:03:40;;;;;;;;;54.00;41.00;;;;;10.72;66.97;101444.03;6340271;22;45159;-53
2022/11/29 11:06:20;;;;;;;;;47.75;38.75;;;;;10.73;66.98;101436.13;6340567;22;46335;-53
2022/11/29 11:08:50;;;;;;;;;50.25;41.75;;;;;10.76;67.10;101444.91;6340162;22;45276;-50
2022/11/29 11:11:27;;;;;;;;;55.50;42.50;;;;;10.77;66.97;101442.25;6341334;22;45146;-49
2022/11/29 11:14:18;;;;;;;;;52.75;41.25;;;;;10.79;66.86;101444.88;6338721;22;45450;-52
2022/11/29 11:16:43;;;;;;;;;56.25;41.50;;;;;10.82;66.95;101450.13;6340221;22;47004;-52
2022/11/29 11:19:27;;;;;;;;;52.75;42.00;;;;;10.84;66.82;101453.63;6340955;22;45245;-52
2022/11/29 11:21:54;;;;;;;;;52.50;41.25;;;;;10.84;66.95;101450.97;6341067;22;45412;-50
2022/11/29 11:24:25;;;;;;;;;51.50;40.75;;;;;10.88;66.74;101450.13;6339297;22;45238;-52
2022/11/29 11:26:51;;;;;;;;;48.00;38.25;;;;;10.92;66.84;101461.47;6340300;22;46207;-49
2022/11/29 11:29:35;;;;;;;;;50.50;43.00;;;;;10.93;66.88;101456.22;6340599;22;45405;-52
2022/11/29 11:32:01;;;;;;;;;81.67;66.67;;;;;10.95;66.76;101458.84;6338756;22;45292;-50
2022/11/29 11:34:28;;;;;;;;;48.50;38.00;;;;;10.97;66.75;101455.31;6340611;22;45316;-50
2022/11/29 11:37:30;;;;;;;;;46.50;38.75;;;;;10.99;66.86;101456.19;6339408;22;45287;-52
2022/11/29 11:39:58;;;;;;;;;50.50;36.00;;;;;11.02;66.62;101447.41;6339254;22;45298;-52
2022/11/29 11:42:39;;;;;;;;;48.50;37.50;;;;;11.05;66.78;101456.13;6340359;22;45625;-49
2022/11/29 11:45:10;;;;;;;;;53.00;38.25;;;;;11.07;66.84;101450.91;6340484;22;45231;-51
2022/11/29 11:47:45;;;;;;;;;50.50;39.50;;;;;11.08;66.62;101450.03;6340406;22;45342;-52
2022/11/29 11:50:14;;;;;;;;;48.25;37.25;;;;;11.02;66.70;101437.75;6340002;22;45365;-52
2022/11/29 11:52:51;;;;;;;;;51.25;41.00;;;;;11.13;66.53;101444.72;6340533;22;45357;-53
2022/11/29 11:55:19;;;;;;;;;52.25;40.50;;;;;11.16;66.79;101452.59;6340139;22;45270;-53
2022/11/29 11:57:45;;;;;;;;;46.25;37.50;;;;;11.18;66.61;101453.44;6340184;22;45365;-53